Terminal Aerodrome Forecast
Issued by NWS

Current Version | Previous Version | Text Only | Print | Product List | Glossary On
Versions: 1 2 3 4 5 6 7 8 9 10 11 12 13 14 15 16
539
FTUS43 KFGF 262324
TAFBJI
TAF
KBJI 262324Z 2700/2724 03011KT 3SM -SN OVC015
      TEMPO 2700/2704 1 1/2SM -SN OVC009
     FM270400 01008KT P6SM OVC012
     FM271300 34009KT P6SM OVC008
     FM271800 33009KT P6SM OVC010=

USA.gov is the U.S. government's official web portal to all federal, state and local government web resources and services.